Time;durP1;ratioP1;P1;durP2;ratioP2;P2;SDS_P1;SDS_P2;PMS_P1;PMS_P2;Temp;Humidity;BMP_temperature;BMP_pressure;BME280_temperature;BME280_humidity;BME280_pressure;Samples;Min_cycle;Max_cycle;Signal;HPM_P1;HPM_P2
2023/05/11 17:18:59;;;;;;;4.30;2.38;;;14.50;64.10;;;;;;5084908;28;20305;-80
2023/05/11 17:21:27;;;;;;;4.40;2.00;;;15.10;71.20;;;;;;5088756;28;20734;-77
2023/05/11 17:23:54;;;;;;;6.53;1.90;;;16.40;69.10;;;;;;5090102;28;20197;-79
2023/05/11 17:26:25;;;;;;;6.28;2.03;;;17.40;66.90;;;;;;4997308;28;20598;-80
2023/05/11 17:28:55;;;;;;;5.18;1.60;;;18.00;64.80;;;;;;5070374;28;20221;-80
2023/05/11 17:31:23;;;;;;;5.25;1.75;;;18.60;63.50;;;;;;5070096;28;20779;-77
2023/05/11 17:33:51;;;;;;;2.85;1.63;;;18.90;62.40;;;;;;5087441;28;20189;-81
2023/05/11 17:36:20;;;;;;;5.90;2.00;;;19.20;61.70;;;;;;5066754;28;20217;-78
2023/05/11 17:38:48;;;;;;;4.15;2.17;;;19.40;61.10;;;;;;5087569;28;20190;-82
2023/05/11 17:41:15;;;;;;;4.15;1.30;;;19.50;60.50;;;;;;5084823;28;20214;-81
2023/05/11 17:43:42;;;;;;;3.53;1.70;;;19.60;60.00;;;;;;5085211;28;20198;-78
2023/05/11 17:46:09;;;;;;;3.10;1.60;;;19.70;60.70;;;;;;5083617;28;20201;-80
2023/05/11 17:48:36;;;;;;;4.78;1.60;;;19.80;59.80;;;;;;5084344;28;20510;-76
2023/05/11 17:51:05;;;;;;;2.72;1.58;;;19.90;59.60;;;;;;5085442;28;20297;-80
2023/05/11 17:53:33;;;;;;;2.55;1.35;;;19.90;59.40;;;;;;5083840;28;20201;-82
2023/05/11 17:56:00;;;;;;;3.65;1.30;;;20.00;59.10;;;;;;5085566;28;20229;-81
2023/05/11 17:58:27;;;;;;;3.95;1.60;;;20.00;58.80;;;;;;5087500;28;20198;-79
2023/05/11 18:00:54;;;;;;;5.28;1.70;;;20.00;58.50;;;;;;5086120;28;20191;-78
2023/05/11 18:03:21;;;;;;;5.43;1.55;;;20.00;58.40;;;;;;5088880;28;20280;-83
2023/05/11 18:05:48;;;;;;;6.68;1.40;;;20.10;58.20;;;;;;5086428;28;20569;-82
2023/05/11 18:08:17;;;;;;;3.92;1.38;;;20.10;58.00;;;;;;5091611;28;20300;-83
2023/05/11 18:10:44;;;;;;;4.88;1.60;;;20.10;57.80;;;;;;5093075;28;20222;-83
2023/05/11 18:13:12;;;;;;;3.30;1.63;;;20.10;57.60;;;;;;5093288;28;20214;-81
2023/05/11 18:15:39;;;;;;;3.05;1.35;;;20.10;57.50;;;;;;5075562;28;20563;-83
2023/05/11 18:18:05;;;;;;;5.85;1.48;;;20.10;57.20;;;;;;5093839;28;20233;-82
2023/05/11 18:20:32;;;;;;;4.40;1.30;;;20.10;57.10;;;;;;5094138;28;20197;-82
2023/05/11 18:23:00;;;;;;;3.47;1.30;;;20.10;57.00;;;;;;5094028;28;20621;-82
2023/05/11 18:25:30;;;;;;;5.10;1.70;;;20.10;56.80;;;;;;5093692;28;20656;-82
2023/05/11 18:27:58;;;;;;;6.15;1.90;;;20.10;56.70;;;;;;5094250;28;20214;-83
2023/05/11 18:30:25;;;;;;;4.57;1.50;;;20.10;56.50;;;;;;5075407;28;20222;-82
2023/05/11 18:32:51;;;;;;;4.38;1.38;;;20.10;56.40;;;;;;5094087;28;20214;-81
2023/05/11 18:35:18;;;;;;;3.72;1.52;;;20.10;56.20;;;;;;5093583;28;20647;-83
2023/05/11 18:37:45;;;;;;;3.25;1.38;;;20.10;56.10;;;;;;5093456;28;20227;-81
2023/05/11 18:40:13;;;;;;;3.35;1.42;;;20.10;56.60;;;;;;5093875;28;20193;-83
2023/05/11 18:42:42;;;;;;;6.22;1.50;;;20.10;55.80;;;;;;5093155;28;20214;-83
2023/05/11 18:45:10;;;;;;;6.18;1.50;;;20.10;55.70;;;;;;5092649;28;20723;-78
2023/05/11 18:47:40;;;;;;;3.42;1.50;;;20.10;55.60;;;;;;5041314;28;20214;-83
2023/05/11 18:50:07;;;;;;;5.63;1.50;;;20.00;55.60;;;;;;5093467;28;20218;-82
2023/05/11 18:52:35;;;;;;;5.95;1.70;;;20.10;55.60;;;;;;5093636;28;20547;-83
2023/05/11 18:55:01;;;;;;;4.13;1.40;;;20.10;55.60;;;;;;5093474;28;20277;-83
2023/05/11 18:57:31;;;;;;;3.03;1.40;;;20.10;55.60;;;;;;5093696;28;20495;-84
2023/05/11 18:59:59;;;;;;;4.40;1.50;;;20.10;55.60;;;;;;5091824;28;20729;-83
2023/05/11 19:02:26;;;;;;;4.25;1.35;;;20.10;55.60;;;;;;5093262;28;20236;-83
2023/05/11 19:04:53;;;;;;;5.35;1.30;;;20.10;55.60;;;;;;5093289;28;20182;-83
2023/05/11 19:07:20;;;;;;;3.83;1.50;;;20.10;55.50;;;;;;5092572;28;20302;-83
2023/05/11 19:09:47;;;;;;;3.17;1.40;;;20.00;56.00;;;;;;5093039;28;20245;-84
2023/05/11 19:12:16;;;;;;;3.78;1.50;;;20.00;55.20;;;;;;5093367;28;20220;-82
2023/05/11 19:14:43;;;;;;;4.07;1.70;;;20.00;55.20;;;;;;5092334;28;20186;-83
2023/05/11 19:17:11;;;;;;;2.83;1.40;;;20.00;55.80;;;;;;5092994;28;20220;-84
2023/05/11 19:19:38;;;;;;;2.33;1.20;;;20.00;55.10;;;;;;5092778;28;20198;-83
2023/05/11 19:22:05;;;;;;;4.43;1.38;;;20.00;55.10;;;;;;5093147;28;20210;-83
2023/05/11 19:24:32;;;;;;;3.83;1.60;;;20.00;55.10;;;;;;5092675;28;20628;-83
2023/05/11 19:26:59;;;;;;;4.68;1.55;;;20.00;55.60;;;;;;5093041;28;20224;-83
2023/05/11 19:29:26;;;;;;;3.95;1.70;;;20.00;55.00;;;;;;5073742;28;20721;-82
2023/05/11 19:31:54;;;;;;;4.30;1.45;;;20.00;55.00;;;;;;5074940;28;20271;-83
2023/05/11 19:34:22;;;;;;;4.97;2.05;;;20.00;55.00;;;;;;5092859;28;20185;-83
2023/05/11 19:36:49;;;;;;;3.45;1.63;;;20.00;54.90;;;;;;5092697;28;20308;-83
2023/05/11 19:39:16;;;;;;;3.20;1.60;;;19.90;54.80;;;;;;5092919;28;20239;-84
2023/05/11 19:41:44;;;;;;;3.50;1.23;;;19.90;54.80;;;;;;5092748;28;20295;-83
2023/05/11 19:44:11;;;;;;;4.82;1.70;;;19.90;54.80;;;;;;5092911;28;20616;-83
2023/05/11 19:46:45;;;;;;;4.38;1.65;;;19.90;54.80;;;;;;5091895;28;20734;-84
2023/05/11 19:49:12;;;;;;;4.05;1.77;;;19.90;54.80;;;;;;5092556;28;20190;-83
2023/05/11 19:51:41;;;;;;;3.53;1.42;;;19.90;54.80;;;;;;5092169;28;20304;-84
2023/05/11 19:54:08;;;;;;;4.95;1.60;;;19.90;54.80;;;;;;5092627;28;20210;-84
2023/05/11 19:56:35;;;;;;;4.68;1.73;;;19.90;54.80;;;;;;5092564;28;20221;-84
2023/05/11 19:59:03;;;;;;;5.78;1.90;;;19.90;54.80;;;;;;5093033;28;20280;-81
2023/05/11 20:01:30;;;;;;;4.30;1.65;;;19.90;54.80;;;;;;5073509;28;20229;-81
2023/05/11 20:03:57;;;;;;;4.63;1.52;;;19.90;54.80;;;;;;5092387;28;20186;-81
2023/05/11 20:06:25;;;;;;;4.93;1.58;;;19.80;54.70;;;;;;5092100;28;20186;-83
2023/05/11 20:08:55;;;;;;;6.10;1.75;;;19.80;54.80;;;;;;5092581;28;20188;-79
2023/05/11 20:11:24;;;;;;;5.15;1.60;;;19.80;54.80;;;;;;5091678;28;20209;-84
2023/05/11 20:13:52;;;;;;;5.18;1.52;;;19.80;54.80;;;;;;5057809;28;20194;-84
2023/05/11 20:16:19;;;;;;;4.47;1.45;;;19.80;55.40;;;;;;5091783;28;20190;-82
2023/05/11 20:18:46;;;;;;;3.72;1.73;;;19.80;54.80;;;;;;5092013;28;20328;-80
2023/05/11 20:21:14;;;;;;;4.80;1.63;;;19.80;54.70;;;;;;5091878;28;20679;-83
2023/05/11 20:23:41;;;;;;;7.07;1.70;;;19.80;54.70;;;;;;5073750;28;20204;-82
2023/05/11 20:26:10;;;;;;;4.15;1.60;;;19.80;54.70;;;;;;5092349;28;20273;-81
2023/05/11 20:28:38;;;;;;;3.97;1.50;;;19.70;54.70;;;;;;5092251;28;20186;-77
2023/05/11 20:31:05;;;;;;;3.22;1.25;;;19.70;54.70;;;;;;5091624;28;20218;-80
2023/05/11 20:33:32;;;;;;;6.45;2.03;;;19.70;54.70;;;;;;5074056;28;20761;-81
2023/05/11 20:35:59;;;;;;;5.32;1.70;;;19.70;54.60;;;;;;5092191;28;20263;-77
2023/05/11 20:38:26;;;;;;;6.00;1.77;;;19.70;54.70;;;;;;5091371;28;20237;-82
2023/05/11 20:40:56;;;;;;;4.07;1.65;;;19.70;54.70;;;;;;5073853;28;20187;-83
2023/05/11 20:43:26;;;;;;;5.60;1.67;;;19.70;54.70;;;;;;5091620;28;20611;-82
2023/05/11 20:45:53;;;;;;;6.38;1.73;;;19.70;54.70;;;;;;5091356;28;20244;-83
2023/05/11 20:48:20;;;;;;;4.38;1.70;;;19.70;54.60;;;;;;5074417;28;20217;-84
2023/05/11 20:50:51;;;;;;;5.82;1.92;;;19.60;55.20;;;;;;5091936;28;20225;-83
2023/05/11 20:53:18;;;;;;;4.65;1.48;;;19.60;54.60;;;;;;5092066;28;20300;-79
2023/05/11 20:55:45;;;;;;;3.10;1.50;;;19.70;54.70;;;;;;5091774;28;20260;-84
2023/05/11 20:58:12;;;;;;;4.88;1.40;;;19.60;54.60;;;;;;5074289;28;20218;-83
2023/05/11 21:00:40;;;;;;;3.38;1.23;;;19.60;54.60;;;;;;5091077;28;20248;-77
2023/05/11 21:03:07;;;;;;;3.65;1.70;;;19.60;54.60;;;;;;5091957;28;20224;-81
2023/05/11 21:05:35;;;;;;;5.75;1.65;;;19.60;54.60;;;;;;5091899;28;20186;-81
2023/05/11 21:08:02;;;;;;;4.75;1.70;;;19.60;54.70;;;;;;5092011;28;20302;-84
2023/05/11 21:10:29;;;;;;;3.05;1.50;;;19.60;54.60;;;;;;5091745;28;20310;-83
2023/05/11 21:12:56;;;;;;;5.65;1.90;;;19.60;54.60;;;;;;5091666;28;20225;-82
2023/05/11 21:15:23;;;;;;;4.03;1.70;;;19.60;54.60;;;;;;5091174;28;20194;-83
2023/05/11 21:17:52;;;;;;;6.38;1.92;;;19.60;54.60;;;;;;5091397;28;20887;-80
2023/05/11 21:20:19;;;;;;;3.38;1.55;;;19.60;54.60;;;;;;5091422;28;20652;-81
2023/05/11 21:22:46;;;;;;;3.67;1.90;;;19.60;54.60;;;;;;5092971;28;20218;-82
2023/05/11 21:25:13;;;;;;;6.00;1.52;;;19.60;55.20;;;;;;5095378;28;20572;-83
2023/05/11 21:27:41;;;;;;;4.70;1.85;;;19.50;54.50;;;;;;5095325;28;20214;-80
2023/05/11 21:30:09;;;;;;;3.47;1.70;;;19.60;54.60;;;;;;5094654;28;20301;-83
2023/05/11 21:32:37;;;;;;;6.47;1.60;;;19.60;54.60;;;;;;5059653;28;20305;-82
2023/05/11 21:35:06;;;;;;;3.45;1.75;;;19.60;54.60;;;;;;5095210;28;20186;-82
2023/05/11 21:37:34;;;;;;;2.45;1.52;;;19.50;54.50;;;;;;5095270;28;20297;-81
2023/05/11 21:40:01;;;;;;;4.20;1.75;;;19.50;54.50;;;;;;5095046;28;20197;-83
2023/05/11 21:42:33;;;;;;;3.83;2.00;;;19.50;54.50;;;;;;5095136;28;20221;-83
2023/05/11 21:45:00;;;;;;;3.88;1.60;;;19.50;54.50;;;;;;5093962;28;20571;-83
2023/05/11 21:47:27;;;;;;;4.43;1.70;;;19.50;54.50;;;;;;5094761;28;20719;-84
2023/05/11 21:49:55;;;;;;;4.15;1.88;;;19.50;54.50;;;;;;5094770;28;20190;-81
2023/05/11 21:52:23;;;;;;;3.22;1.70;;;19.50;54.50;;;;;;5094918;28;20316;-81
2023/05/11 21:54:51;;;;;;;2.65;1.80;;;19.50;54.50;;;;;;5094429;28;20186;-80
2023/05/11 21:57:19;;;;;;;5.38;1.80;;;19.50;54.50;;;;;;5094847;28;20218;-83
2023/05/11 21:59:46;;;;;;;5.28;1.77;;;19.50;54.50;;;;;;5075896;28;20186;-78
2023/05/11 22:02:13;;;;;;;4.50;2.15;;;19.50;54.50;;;;;;5094635;28;20224;-81
2023/05/11 22:04:40;;;;;;;4.82;1.50;;;19.40;54.40;;;;;;5094573;28;20281;-81
2023/05/11 22:07:07;;;;;;;5.53;1.90;;;19.40;54.40;;;;;;5076517;28;20217;-83
2023/05/11 22:09:36;;;;;;;4.43;1.88;;;19.40;54.40;;;;;;5060137;28;20209;-81
2023/05/11 22:12:03;;;;;;;5.28;2.00;;;19.40;54.40;;;;;;5076347;28;20240;-84
2023/05/11 22:14:30;;;;;;;6.60;1.77;;;19.40;54.40;;;;;;5075716;28;20202;-81
2023/05/11 22:16:57;;;;;;;5.20;1.63;;;19.40;55.10;;;;;;5094090;28;20552;-81
2023/05/11 22:19:24;;;;;;;2.65;1.50;;;19.40;54.40;;;;;;5094216;28;20218;-79
2023/05/11 22:21:52;;;;;;;5.10;2.00;;;19.40;54.40;;;;;;5075939;28;20221;-82
2023/05/11 22:24:20;;;;;;;6.43;2.00;;;19.40;54.40;;;;;;5093838;28;20674;-80
2023/05/11 22:26:48;;;;;;;2.58;1.67;;;19.40;54.40;;;;;;5094017;28;20209;-78
2023/05/11 22:29:15;;;;;;;3.92;1.60;;;19.40;54.50;;;;;;5093525;28;20190;-83
2023/05/11 22:31:42;;;;;;;5.63;2.50;;;19.40;54.40;;;;;;5093718;28;20304;-83
2023/05/11 22:34:09;;;;;;;5.10;1.95;;;19.30;55.00;;;;;;5093860;28;20192;-77
2023/05/11 22:36:36;;;;;;;7.32;2.00;;;19.30;54.40;;;;;;5093869;28;20190;-78
2023/05/11 22:39:04;;;;;;;5.15;1.77;;;19.30;54.40;;;;;;5093585;28;20675;-83
2023/05/11 22:41:31;;;;;;;6.05;1.77;;;19.30;54.30;;;;;;5093561;28;20674;-83
2023/05/11 22:43:59;;;;;;;6.43;1.80;;;19.30;54.30;;;;;;5092868;28;20218;-83
2023/05/11 22:46:26;;;;;;;4.55;1.80;;;19.30;54.40;;;;;;5093810;28;20221;-82
2023/05/11 22:48:53;;;;;;;6.53;1.88;;;19.30;54.30;;;;;;5093802;28;20227;-84
2023/05/11 22:51:20;;;;;;;4.40;1.67;;;19.30;54.30;;;;;;5093473;28;20249;-84
2023/05/11 22:53:48;;;;;;;6.47;2.22;;;19.30;54.30;;;;;;5075621;28;20696;-84
2023/05/11 22:56:15;;;;;;;2.92;1.60;;;19.30;54.40;;;;;;5075793;28;20186;-83
2023/05/11 22:58:42;;;;;;;5.70;1.73;;;19.30;54.30;;;;;;5092790;28;20220;-84
2023/05/11 23:01:11;;;;;;;4.53;1.67;;;19.30;54.30;;;;;;5093301;28;20631;-83
2023/05/11 23:03:38;;;;;;;4.97;2.00;;;19.30;54.40;;;;;;5093187;28;20221;-84
2023/05/11 23:06:05;;;;;;;5.90;1.90;;;19.30;54.30;;;;;;5092301;28;20186;-84
2023/05/11 23:08:32;;;;;;;4.43;1.50;;;19.30;54.30;;;;;;5092634;28;20255;-84
2023/05/11 23:10:59;;;;;;;3.85;1.70;;;19.30;54.30;;;;;;5093304;28;20301;-84
2023/05/11 23:13:27;;;;;;;5.97;1.90;;;19.20;54.20;;;;;;5092299;28;20707;-84
2023/05/11 23:15:54;;;;;;;4.68;1.83;;;19.20;54.20;;;;;;5093256;28;20598;-85
2023/05/11 23:18:22;;;;;;;4.80;1.67;;;19.20;54.30;;;;;;5092931;28;20236;-84
2023/05/11 23:20:54;;;;;;;3.13;1.70;;;19.20;54.20;;;;;;5074785;28;20585;-85
2023/05/11 23:23:21;;;;;;;3.92;1.63;;;19.20;54.20;;;;;;5092869;28;20724;-83
2023/05/11 23:25:48;;;;;;;3.50;1.60;;;19.20;54.30;;;;;;5074953;28;20247;-84
2023/05/11 23:28:15;;;;;;;3.88;1.83;;;19.20;54.20;;;;;;5092031;28;20213;-84
2023/05/11 23:30:44;;;;;;;4.15;1.63;;;19.20;54.20;;;;;;5074566;28;20225;-84
2023/05/11 23:33:11;;;;;;;2.83;1.63;;;19.20;54.40;;;;;;5092893;28;20268;-84
2023/05/11 23:35:40;;;;;;;5.28;2.25;;;19.20;54.20;;;;;;5093046;28;20182;-83
2023/05/11 23:38:07;;;;;;;4.40;1.70;;;19.20;54.20;;;;;;5092880;28;20245;-82
2023/05/11 23:40:35;;;;;;;3.75;1.80;;;19.20;54.20;;;;;;5092552;28;20702;-84
2023/05/11 23:43:01;;;;;;;5.32;1.90;;;19.10;54.10;;;;;;5092020;28;20291;-80
2023/05/11 23:45:31;;;;;;;3.97;1.77;;;19.10;54.10;;;;;;5092202;28;20194;-76
2023/05/11 23:47:58;;;;;;;3.50;1.90;;;19.10;54.20;;;;;;5092795;28;20214;-81
2023/05/11 23:50:25;;;;;;;4.45;1.90;;;19.10;54.10;;;;;;5092207;28;20727;-82
2023/05/11 23:52:54;;;;;;;5.28;1.85;;;19.10;54.10;;;;;;5092632;28;20279;-83
2023/05/11 23:55:23;;;;;;;4.90;1.80;;;19.10;54.20;;;;;;5073940;28;20194;-83
2023/05/11 23:57:50;;;;;;;4.53;2.20;;;19.10;54.10;;;;;;5091736;28;20719;-83
